Time;durP1;ratioP1;P1;durP2;ratioP2;P2;SDS_P1;SDS_P2;PMS_P1;PMS_P2;Temp;Humidity;BMP_temperature;BMP_pressure;BME280_temperature;BME280_humidity;BME280_pressure;Samples;Min_cycle;Max_cycle;Signal;HPM_P1;HPM_P2
2023/01/23 00:02:08;;;;;;;18.50;11.90;;;-0.40;99.90;;;;;;5072411;28;20196;-70
2023/01/23 00:04:34;;;;;;;17.80;12.17;;;-0.40;99.90;;;;;;5072405;28;20579;-70
2023/01/23 00:07:02;;;;;;;17.27;12.03;;;-0.40;99.90;;;;;;5072146;28;20645;-70
2023/01/23 00:09:30;;;;;;;17.97;12.40;;;-0.40;99.90;;;;;;5071968;28;20561;-70
2023/01/23 00:11:57;;;;;;;20.10;13.47;;;-0.40;99.90;;;;;;5072186;28;20197;-70
2023/01/23 00:14:23;;;;;;;18.23;12.10;;;-0.40;99.90;;;;;;5072070;28;20246;-70
2023/01/23 00:16:50;;;;;;;16.50;11.40;;;-0.30;99.90;;;;;;5072339;28;20197;-70
2023/01/23 00:19:17;;;;;;;16.63;11.50;;;-0.30;99.90;;;;;;5072275;28;20198;-70
2023/01/23 00:21:43;;;;;;;18.77;11.70;;;-0.30;99.90;;;;;;5073585;28;20205;-70
2023/01/23 00:24:11;;;;;;;17.93;12.07;;;-0.40;99.90;;;;;;5075860;28;20656;-70
2023/01/23 00:26:39;;;;;;;19.23;12.77;;;-0.40;99.90;;;;;;5075624;28;20275;-70
2023/01/23 00:29:06;;;;;;;19.80;13.23;;;-0.40;99.90;;;;;;5075921;28;20221;-70
2023/01/23 00:31:35;;;;;;;17.80;12.37;;;-0.40;99.90;;;;;;5075845;28;20197;-70
2023/01/23 00:34:05;;;;;;;18.97;12.90;;;-0.40;99.90;;;;;;5075743;28;20201;-71
2023/01/23 00:36:34;;;;;;;18.47;13.07;;;-0.40;99.90;;;;;;5076073;28;20201;-70
2023/01/23 00:39:01;;;;;;;21.47;13.20;;;-0.40;99.90;;;;;;5075515;28;20648;-71
2023/01/23 00:41:28;;;;;;;19.67;13.30;;;-0.40;99.90;;;;;;5075427;28;20196;-70
2023/01/23 00:43:55;;;;;;;21.83;13.33;;;-0.40;99.90;;;;;;5075765;28;20254;-70
2023/01/23 00:46:22;;;;;;;18.33;12.40;;;-0.40;99.90;;;;;;5075656;28;20205;-70
2023/01/23 00:48:49;;;;;;;21.00;12.13;;;-0.40;99.90;;;;;;5075156;28;20753;-70
2023/01/23 00:51:17;;;;;;;18.03;11.93;;;-0.40;99.90;;;;;;5075428;28;20296;-71
2023/01/23 00:53:44;;;;;;;18.67;12.13;;;-0.40;99.90;;;;;;5075279;28;20196;-71
2023/01/23 00:56:10;;;;;;;20.33;12.93;;;-0.40;99.90;;;;;;5075222;28;20201;-70
2023/01/23 00:58:39;;;;;;;20.40;13.17;;;-0.40;99.90;;;;;;5075386;28;20201;-71
2023/01/23 01:01:07;;;;;;;21.27;13.37;;;-0.40;99.90;;;;;;5075323;28;20197;-70
2023/01/23 01:03:34;;;;;;;19.53;12.40;;;-0.40;99.90;;;;;;5075229;28;20201;-70
2023/01/23 01:06:01;;;;;;;19.83;12.63;;;-0.40;99.90;;;;;;5075026;28;20201;-70
2023/01/23 01:08:28;;;;;;;19.83;13.17;;;-0.30;99.90;;;;;;5074813;28;20741;-70
2023/01/23 01:10:54;;;;;;;22.03;13.07;;;-0.40;99.90;;;;;;5075207;28;20254;-69
2023/01/23 01:13:22;;;;;;;21.03;13.60;;;-0.40;99.90;;;;;;5075092;28;20250;-70
2023/01/23 01:15:49;;;;;;;24.23;14.43;;;-0.40;99.90;;;;;;5074954;28;20201;-69
2023/01/23 01:18:18;;;;;;;20.50;12.97;;;-0.40;99.90;;;;;;5074876;28;20538;-69
2023/01/23 01:20:45;;;;;;;24.70;14.30;;;-0.40;99.90;;;;;;5074835;28;20630;-70
2023/01/23 01:23:12;;;;;;;24.27;14.07;;;-0.40;99.90;;;;;;5074701;28;20193;-69
2023/01/23 01:25:39;;;;;;;21.20;13.30;;;-0.40;99.90;;;;;;5074630;28;20282;-70
2023/01/23 01:28:06;;;;;;;21.53;13.37;;;-0.40;99.90;;;;;;5074769;28;20197;-69
2023/01/23 01:30:33;;;;;;;22.07;14.10;;;-0.40;99.90;;;;;;5074789;28;20197;-70
2023/01/23 01:33:00;;;;;;;22.70;13.07;;;-0.40;99.90;;;;;;5073633;28;20197;-70
2023/01/23 01:35:28;;;;;;;21.73;13.83;;;-0.40;99.90;;;;;;5074464;28;20246;-70
2023/01/23 01:37:54;;;;;;;21.17;14.30;;;-0.40;99.90;;;;;;5074622;28;20202;-70
2023/01/23 01:40:25;;;;;;;23.40;14.70;;;-0.40;99.90;;;;;;5074405;28;20568;-70
2023/01/23 01:42:56;;;;;;;21.90;13.70;;;-0.40;99.90;;;;;;5074411;28;20204;-70
2023/01/23 01:46:00;;;;;;;19.67;12.90;;;-0.40;99.90;;;;;;5074447;28;20247;-70
2023/01/23 01:48:32;;;;;;;22.23;13.67;;;-0.40;99.90;;;;;;5074365;28;20201;-70
2023/01/23 01:51:02;;;;;;;21.57;14.47;;;-0.40;99.90;;;;;;5074328;28;20209;-70
2023/01/23 01:53:30;;;;;;;20.50;13.53;;;-0.30;99.90;;;;;;5074212;28;20197;-70
2023/01/23 01:55:58;;;;;;;22.93;14.30;;;-0.30;99.90;;;;;;5074090;28;20678;-70
2023/01/23 01:58:26;;;;;;;24.83;14.63;;;-0.40;99.90;;;;;;5074046;28;20200;-70
2023/01/23 02:00:53;;;;;;;22.00;14.57;;;-0.40;99.90;;;;;;5073878;28;20645;-69
2023/01/23 02:03:19;;;;;;;23.27;14.53;;;-0.40;99.90;;;;;;5073982;28;20283;-69
2023/01/23 02:05:49;;;;;;;23.93;15.03;;;-0.40;99.90;;;;;;5073889;28;20197;-69
2023/01/23 02:08:23;;;;;;;21.70;13.97;;;-0.40;99.90;;;;;;5073821;28;20239;-69
2023/01/23 02:10:50;;;;;;;21.93;14.10;;;-0.40;99.90;;;;;;5073700;28;20201;-69
2023/01/23 02:13:29;;;;;;;25.90;14.77;;;-0.40;99.90;;;;;;5073617;28;20197;-69
2023/01/23 02:15:56;;;;;;;23.97;14.40;;;-0.40;99.90;;;;;;5073891;28;20200;-69
2023/01/23 02:18:23;;;;;;;23.60;14.00;;;-0.40;99.90;;;;;;5073723;28;20197;-69
2023/01/23 02:20:52;;;;;;;22.13;13.87;;;-0.40;99.90;;;;;;5073653;28;20243;-69
2023/01/23 02:23:27;;;;;;;22.97;14.93;;;-0.40;99.90;;;;;;5073454;28;20247;-70
2023/01/23 02:26:01;;;;;;;23.97;14.80;;;-0.40;99.90;;;;;;5073589;28;20278;-70
2023/01/23 02:28:38;;;;;;;23.07;14.83;;;-0.40;99.90;;;;;;5073340;28;20603;-70
2023/01/23 02:31:05;;;;;;;24.40;15.50;;;-0.40;99.90;;;;;;5073593;28;20287;-70
2023/01/23 02:33:51;;;;;;;22.30;14.70;;;-0.40;99.90;;;;;;5073440;28;20193;-70
2023/01/23 02:36:19;;;;;;;22.37;14.80;;;-0.40;99.90;;;;;;5073541;28;20611;-70
2023/01/23 02:38:53;;;;;;;27.37;15.97;;;-0.40;99.90;;;;;;5073457;28;20200;-70
2023/01/23 02:41:27;;;;;;;22.70;14.70;;;-0.30;99.90;;;;;;5073378;28;20228;-71
2023/01/23 02:43:56;;;;;;;22.90;14.07;;;-0.40;99.90;;;;;;5073111;28;20197;-70
2023/01/23 02:46:24;;;;;;;27.50;14.97;;;-0.40;99.90;;;;;;5073151;28;20204;-70
2023/01/23 02:48:50;;;;;;;23.67;14.77;;;-0.40;99.90;;;;;;5073493;28;20533;-70
2023/01/23 02:51:17;;;;;;;24.67;15.33;;;-0.40;99.90;;;;;;5073298;28;20254;-70
2023/01/23 02:53:44;;;;;;;27.20;16.93;;;-0.40;99.90;;;;;;5073091;28;20220;-71
2023/01/23 02:56:10;;;;;;;24.87;15.53;;;-0.40;99.90;;;;;;5073267;28;20660;-70
2023/01/23 03:01:37;;;;;;;25.00;15.43;;;-0.40;99.90;;;;;;5050773;28;20190;-70
2023/01/23 03:04:05;;;;;;;24.87;14.93;;;-0.40;99.90;;;;;;5050738;28;20288;-71
2023/01/23 03:06:35;;;;;;;25.23;15.57;;;-0.40;99.90;;;;;;5060431;28;20265;-71
2023/01/23 03:09:04;;;;;;;24.87;14.57;;;-0.40;99.90;;;;;;5072918;28;20257;-70
2023/01/23 03:11:31;;;;;;;25.70;15.37;;;-0.40;99.90;;;;;;5072825;28;20205;-70
2023/01/23 03:13:59;;;;;;;24.60;14.83;;;-0.40;99.90;;;;;;5073015;28;20197;-71
2023/01/23 03:16:25;;;;;;;28.47;16.17;;;-0.40;99.90;;;;;;5072903;28;20255;-71
2023/01/23 03:18:52;;;;;;;25.93;16.13;;;-0.40;99.90;;;;;;5072798;28;20262;-70
2023/01/23 03:21:18;;;;;;;28.63;16.67;;;-0.40;99.90;;;;;;5072768;28;20201;-71
2023/01/23 03:23:46;;;;;;;27.23;15.73;;;-0.40;99.90;;;;;;5072621;28;20197;-71
2023/01/23 03:26:13;;;;;;;26.10;16.03;;;-0.30;99.90;;;;;;5072664;28;20320;-70
2023/01/23 03:31:25;;;;;;;24.17;15.17;;;-0.30;99.90;;;;;;5072717;28;20664;-69
2023/01/23 03:33:52;;;;;;;31.43;16.90;;;-0.30;99.90;;;;;;5072656;28;20246;-70
2023/01/23 03:36:19;;;;;;;28.07;16.57;;;-0.30;99.90;;;;;;5072482;28;20262;-70
2023/01/23 03:41:26;;;;;;;28.10;16.40;;;-0.30;99.90;;;;;;5071818;28;20196;-70
2023/01/23 03:43:53;;;;;;;29.73;17.07;;;-0.30;99.90;;;;;;5072530;28;20644;-70
2023/01/23 03:46:20;;;;;;;27.17;16.63;;;-0.20;99.90;;;;;;5072532;28;20259;-72
2023/01/23 03:48:47;;;;;;;31.67;17.90;;;-0.30;99.90;;;;;;5072402;28;20247;-70
2023/01/23 03:51:14;;;;;;;30.80;17.43;;;-0.30;99.90;;;;;;5072537;28;20274;-70
2023/01/23 03:53:41;;;;;;;30.87;17.20;;;-0.30;99.90;;;;;;5072531;28;20197;-70
2023/01/23 03:56:07;;;;;;;32.83;18.40;;;-0.30;99.90;;;;;;5073039;28;20197;-70
2023/01/23 03:58:34;;;;;;;30.43;18.77;;;-0.30;99.90;;;;;;5076512;28;20201;-70
2023/01/23 04:01:02;;;;;;;31.27;17.27;;;-0.30;99.90;;;;;;5076160;28;20603;-69
2023/01/23 04:03:29;;;;;;;32.07;18.10;;;-0.30;99.90;;;;;;5076192;28;20235;-70
2023/01/23 04:05:58;;;;;;;31.93;18.37;;;-0.30;99.90;;;;;;5076334;28;20201;-70
2023/01/23 04:08:25;;;;;;;33.43;19.63;;;-0.30;99.90;;;;;;5076335;28;20197;-69
2023/01/23 04:10:51;;;;;;;35.00;19.43;;;-0.30;99.90;;;;;;5076142;28;20229;-69
2023/01/23 04:13:18;;;;;;;32.33;18.17;;;-0.20;99.90;;;;;;5076094;28;20243;-69
2023/01/23 04:15:44;;;;;;;37.03;19.97;;;-0.20;99.90;;;;;;5075973;28;20201;-70
2023/01/23 04:18:11;;;;;;;31.60;19.57;;;-0.20;99.90;;;;;;5075888;28;20607;-70
2023/01/23 04:20:38;;;;;;;35.40;19.70;;;-0.20;99.90;;;;;;5076350;28;20255;-70
2023/01/23 04:23:05;;;;;;;32.37;18.67;;;-0.20;99.90;;;;;;5075943;28;20262;-70
2023/01/23 04:25:32;;;;;;;36.17;21.13;;;-0.20;99.90;;;;;;5075726;28;20242;-70
2023/01/23 04:27:59;;;;;;;35.73;19.77;;;-0.20;99.90;;;;;;5075850;28;20246;-70
2023/01/23 04:30:25;;;;;;;36.97;19.90;;;-0.20;99.90;;;;;;5075674;28;20220;-70
2023/01/23 04:32:52;;;;;;;33.30;19.03;;;-0.10;99.90;;;;;;5075954;28;20255;-70
2023/01/23 04:35:18;;;;;;;34.43;18.80;;;-0.20;99.90;;;;;;5075744;28;20529;-70
2023/01/23 04:37:45;;;;;;;35.03;19.77;;;-0.20;99.90;;;;;;5075741;28;20192;-71
2023/01/23 04:40:14;;;;;;;34.70;18.40;;;-0.20;99.90;;;;;;5075593;28;20205;-70
2023/01/23 04:42:40;;;;;;;32.70;19.03;;;-0.20;99.90;;;;;;5075431;28;20258;-70
2023/01/23 04:45:08;;;;;;;33.23;19.20;;;-0.20;99.90;;;;;;5075348;28;20197;-69
2023/01/23 04:47:35;;;;;;;34.17;18.90;;;-0.20;99.90;;;;;;5075632;28;20558;-70
2023/01/23 04:50:02;;;;;;;37.43;19.67;;;-0.20;99.90;;;;;;5075669;28;20236;-70
2023/01/23 04:52:28;;;;;;;37.53;19.23;;;-0.20;99.90;;;;;;5075463;28;20254;-70
2023/01/23 04:54:55;;;;;;;34.23;18.40;;;-0.20;99.90;;;;;;5075368;28;20607;-69
2023/01/23 04:57:23;;;;;;;31.77;18.70;;;-0.20;99.90;;;;;;5075333;28;20246;-69
2023/01/23 04:59:50;;;;;;;30.70;18.17;;;-0.20;99.90;;;;;;5075140;28;20216;-69
2023/01/23 05:02:16;;;;;;;33.60;18.93;;;-0.20;99.90;;;;;;5075282;28;20213;-69
2023/01/23 05:04:43;;;;;;;31.77;18.70;;;-0.30;99.90;;;;;;5075254;28;20266;-70
2023/01/23 05:07:11;;;;;;;34.10;18.77;;;-0.30;99.90;;;;;;5075000;28;20205;-70
2023/01/23 05:09:38;;;;;;;33.43;18.77;;;-0.30;99.90;;;;;;5074982;28;20334;-70
2023/01/23 05:12:05;;;;;;;33.47;19.13;;;-0.30;99.90;;;;;;5074878;28;20204;-70
2023/01/23 05:14:33;;;;;;;33.20;18.53;;;-0.30;99.90;;;;;;5074817;28;20197;-69
2023/01/23 05:17:00;;;;;;;31.80;18.93;;;-0.30;99.90;;;;;;5074963;28;20198;-70
2023/01/23 05:19:26;;;;;;;34.47;18.03;;;-0.30;99.90;;;;;;5074997;28;20630;-70
2023/01/23 05:21:53;;;;;;;33.00;17.83;;;-0.20;99.90;;;;;;5074876;28;20250;-70
2023/01/23 05:24:20;;;;;;;30.63;17.70;;;-0.20;99.90;;;;;;5074843;28;20201;-70
2023/01/23 05:26:46;;;;;;;29.77;16.97;;;-0.30;99.90;;;;;;5074640;28;20628;-70
2023/01/23 05:29:13;;;;;;;28.13;17.47;;;-0.30;99.90;;;;;;5074864;28;20197;-70
2023/01/23 05:31:41;;;;;;;31.77;16.67;;;-0.30;99.90;;;;;;5074766;28;20603;-70
2023/01/23 05:34:07;;;;;;;29.90;17.33;;;-0.30;99.90;;;;;;5074715;28;20251;-70
2023/01/23 05:36:34;;;;;;;30.63;17.77;;;-0.30;99.90;;;;;;5074426;28;20560;-70
2023/01/23 05:39:00;;;;;;;34.10;17.73;;;-0.30;99.90;;;;;;5074439;28;20247;-71
2023/01/23 05:41:27;;;;;;;28.07;17.07;;;-0.30;99.90;;;;;;5074254;28;20221;-69
2023/01/23 05:43:54;;;;;;;28.47;17.00;;;-0.30;99.90;;;;;;5074550;28;20242;-70
2023/01/23 05:46:20;;;;;;;28.37;16.73;;;-0.30;99.90;;;;;;5074408;28;20200;-70
2023/01/23 05:48:50;;;;;;;24.07;15.20;;;-0.30;99.90;;;;;;5074421;28;20246;-70
2023/01/23 05:51:17;;;;;;;24.27;15.30;;;-0.30;99.90;;;;;;5074346;28;20687;-70
2023/01/23 05:53:44;;;;;;;23.77;15.00;;;-0.30;99.90;;;;;;5074647;28;20193;-71
2023/01/23 05:56:11;;;;;;;24.97;14.53;;;-0.30;99.90;;;;;;5073980;28;20274;-69
2023/01/23 05:58:37;;;;;;;23.63;14.63;;;-0.30;99.90;;;;;;5074240;28;20711;-69
2023/01/23 06:01:04;;;;;;;20.30;13.57;;;-0.40;99.90;;;;;;5074090;28;20201;-70
2023/01/23 06:03:31;;;;;;;20.93;13.53;;;-0.30;99.90;;;;;;5074013;28;20197;-70
2023/01/23 06:06:00;;;;;;;23.40;14.93;;;-0.30;99.90;;;;;;5073864;28;20197;-70
2023/01/23 06:08:27;;;;;;;21.33;12.90;;;-0.30;99.90;;;;;;5073728;28;20653;-69
2023/01/23 06:10:57;;;;;;;20.07;12.87;;;-0.30;99.90;;;;;;5073878;28;20354;-70
2023/01/23 06:13:23;;;;;;;20.50;13.77;;;-0.30;99.90;;;;;;5074109;28;20201;-69
2023/01/23 06:15:50;;;;;;;20.37;13.03;;;-0.30;99.90;;;;;;5073574;28;20874;-69
2023/01/23 06:18:17;;;;;;;19.77;12.73;;;-0.30;99.90;;;;;;5073691;28;20277;-69
2023/01/23 06:20:43;;;;;;;21.67;13.87;;;-0.30;99.90;;;;;;5073119;28;20197;-69
2023/01/23 06:23:12;;;;;;;23.90;13.83;;;-0.30;99.90;;;;;;5073545;28;20212;-70
2023/01/23 06:25:38;;;;;;;21.73;13.97;;;-0.40;99.90;;;;;;5073480;28;20229;-70
2023/01/23 06:28:05;;;;;;;22.07;14.70;;;-0.30;99.90;;;;;;5073560;28;20251;-70
2023/01/23 06:30:32;;;;;;;24.03;14.67;;;-0.40;99.90;;;;;;5073293;28;20748;-70
2023/01/23 06:32:59;;;;;;;20.97;13.40;;;-0.40;99.90;;;;;;5073409;28;20208;-70
2023/01/23 06:35:26;;;;;;;23.97;15.00;;;-0.30;99.90;;;;;;5073222;28;20201;-70
2023/01/23 06:37:53;;;;;;;26.43;15.17;;;-0.40;99.90;;;;;;5073082;28;20197;-70
2023/01/23 06:40:21;;;;;;;24.63;14.50;;;-0.40;99.90;;;;;;5073304;28;20201;-70
2023/01/23 06:42:49;;;;;;;25.37;15.10;;;-0.40;99.90;;;;;;5073104;28;20652;-70
2023/01/23 06:45:16;;;;;;;25.53;14.33;;;-0.40;99.90;;;;;;5073115;28;20283;-70
2023/01/23 06:47:43;;;;;;;25.83;15.63;;;-0.40;99.90;;;;;;5073028;28;20196;-69
2023/01/23 06:50:10;;;;;;;24.27;14.70;;;-0.40;99.90;;;;;;5073043;28;20295;-70
2023/01/23 06:52:37;;;;;;;22.30;14.57;;;-0.40;99.90;;;;;;5073125;28;20197;-70
2023/01/23 06:55:05;;;;;;;26.90;15.50;;;-0.40;99.90;;;;;;5073184;28;20261;-70
2023/01/23 06:57:33;;;;;;;27.00;15.80;;;-0.40;99.90;;;;;;5073091;28;20258;-70
2023/01/23 07:00:00;;;;;;;22.83;13.97;;;-0.40;99.90;;;;;;5072935;28;20254;-69
2023/01/23 07:02:27;;;;;;;23.97;15.17;;;-0.40;99.90;;;;;;5072876;28;20270;-70
2023/01/23 07:04:53;;;;;;;26.17;15.47;;;-0.40;99.90;;;;;;5073128;28;20247;-70
2023/01/23 07:07:20;;;;;;;24.73;15.17;;;-0.40;99.90;;;;;;5072904;28;20575;-70
2023/01/23 07:09:47;;;;;;;27.23;16.17;;;-0.40;99.90;;;;;;5072881;28;20197;-70
2023/01/23 07:12:13;;;;;;;25.13;15.23;;;-0.40;99.90;;;;;;5072739;28;20624;-70
2023/01/23 07:14:41;;;;;;;27.57;15.77;;;-0.40;99.90;;;;;;5072757;28;20610;-70
2023/01/23 07:17:08;;;;;;;28.20;15.37;;;-0.40;99.90;;;;;;5072563;28;20197;-70
2023/01/23 07:19:34;;;;;;;28.10;16.90;;;-0.40;99.90;;;;;;5073056;28;20193;-70
2023/01/23 07:22:01;;;;;;;25.60;16.23;;;-0.40;99.90;;;;;;5073028;28;20334;-69
2023/01/23 07:24:30;;;;;;;24.17;15.97;;;-0.40;99.90;;;;;;5072862;28;20208;-70
2023/01/23 07:26:57;;;;;;;25.37;15.33;;;-0.40;99.90;;;;;;5072818;28;20267;-69
2023/01/23 07:29:23;;;;;;;26.37;15.80;;;-0.30;99.90;;;;;;5072733;28;20270;-70
2023/01/23 07:31:51;;;;;;;26.97;16.87;;;-0.40;99.90;;;;;;5071621;28;20216;-70
2023/01/23 07:34:18;;;;;;;27.70;16.47;;;-0.30;99.90;;;;;;5072785;28;20611;-71
2023/01/23 07:36:45;;;;;;;26.63;17.20;;;-0.30;99.90;;;;;;5072668;28;20201;-70
2023/01/23 07:39:11;;;;;;;32.37;18.67;;;-0.30;99.90;;;;;;5072614;28;20223;-70
2023/01/23 07:41:38;;;;;;;31.03;17.20;;;-0.30;99.90;;;;;;5072576;28;20243;-71
2023/01/23 07:44:04;;;;;;;29.43;18.03;;;-0.30;99.90;;;;;;5072414;28;20228;-70
2023/01/23 07:46:31;;;;;;;30.47;17.53;;;-0.20;99.90;;;;;;5072250;28;20200;-71
2023/01/23 07:48:59;;;;;;;24.63;15.77;;;-0.20;99.90;;;;;;5072612;28;20193;-70
2023/01/23 07:51:25;;;;;;;26.47;16.43;;;-0.20;99.90;;;;;;5072655;28;20251;-70
2023/01/23 07:53:52;;;;;;;29.97;17.43;;;-0.20;99.90;;;;;;5072395;28;20255;-72
2023/01/23 07:56:19;;;;;;;24.10;16.03;;;-0.20;99.90;;;;;;5072766;28;20585;-70
2023/01/23 07:58:49;;;;;;;27.50;16.90;;;-0.10;99.90;;;;;;5072275;28;20193;-70
2023/01/23 08:01:17;;;;;;;28.10;15.50;;;-0.10;99.90;;;;;;5072512;28;20250;-70
2023/01/23 08:03:44;;;;;;;27.93;14.80;;;-0.10;99.90;;;;;;5072385;28;20222;-71
2023/01/23 08:06:12;;;;;;;28.77;15.20;;;-0.10;99.90;;;;;;5072531;28;20235;-71
2023/01/23 08:08:39;;;;;;;23.13;15.43;;;-0.10;99.90;;;;;;5072337;28;20193;-71
2023/01/23 08:11:06;;;;;;;21.40;13.70;;;-0.10;99.90;;;;;;5072059;28;20759;-72
2023/01/23 08:13:33;;;;;;;26.53;16.37;;;-0.10;99.90;;;;;;5072154;28;20197;-72
2023/01/23 08:15:59;;;;;;;22.03;14.63;;;-0.10;99.90;;;;;;5072120;28;20660;-71
2023/01/23 08:18:26;;;;;;;21.37;14.17;;;0.00;99.90;;;;;;5072358;28;20710;-71
2023/01/23 08:20:54;;;;;;;22.67;13.93;;;0.00;99.90;;;;;;5072074;28;20205;-71
2023/01/23 08:23:24;;;;;;;23.77;13.83;;;0.00;99.90;;;;;;5072122;28;20199;-71
2023/01/23 08:25:53;;;;;;;25.57;15.43;;;0.00;99.90;;;;;;5072033;28;20229;-72
2023/01/23 08:28:20;;;;;;;27.47;15.40;;;0.00;99.90;;;;;;5072300;28;20200;-72
2023/01/23 08:30:46;;;;;;;27.70;16.67;;;0.00;99.90;;;;;;5072141;28;20221;-71
2023/01/23 08:33:13;;;;;;;26.73;15.60;;;0.00;99.90;;;;;;5072016;28;20661;-73
2023/01/23 08:35:39;;;;;;;20.63;13.30;;;-0.10;99.90;;;;;;5072113;28;20193;-71
2023/01/23 08:38:09;;;;;;;22.57;13.97;;;0.00;99.90;;;;;;5071981;28;20193;-71
2023/01/23 08:40:37;;;;;;;23.13;13.93;;;-0.10;99.90;;;;;;5071807;28;20197;-71
2023/01/23 08:43:03;;;;;;;23.77;15.43;;;0.00;99.90;;;;;;5073946;28;20197;-72
2023/01/23 08:45:30;;;;;;;24.13;14.37;;;-0.10;99.90;;;;;;5075604;28;20604;-72
2023/01/23 08:47:58;;;;;;;22.80;14.53;;;0.00;99.90;;;;;;5075343;28;20713;-72
2023/01/23 08:50:24;;;;;;;23.93;14.53;;;0.00;99.90;;;;;;5075397;28;20246;-72
2023/01/23 08:52:51;;;;;;;23.33;13.60;;;0.00;99.90;;;;;;5075170;28;20282;-72
2023/01/23 08:55:17;;;;;;;22.27;13.57;;;0.00;99.90;;;;;;5075232;28;20250;-71
2023/01/23 08:57:45;;;;;;;24.77;15.13;;;0.00;99.90;;;;;;5075304;28;20230;-72
2023/01/23 09:00:13;;;;;;;20.77;13.20;;;0.10;99.90;;;;;;5075269;28;20205;-71
2023/01/23 09:02:40;;;;;;;23.77;14.00;;;0.10;99.90;;;;;;5075218;28;20258;-72
2023/01/23 09:05:07;;;;;;;22.17;14.67;;;0.20;99.90;;;;;;5075177;28;20201;-72
2023/01/23 09:07:35;;;;;;;23.20;14.60;;;0.20;99.90;;;;;;5074891;28;20277;-72
2023/01/23 09:10:02;;;;;;;23.70;15.10;;;0.30;99.90;;;;;;5075036;28;20201;-72
2023/01/23 09:12:29;;;;;;;21.00;14.03;;;0.40;99.90;;;;;;5075056;28;20237;-72
2023/01/23 09:14:57;;;;;;;21.13;13.63;;;0.50;99.90;;;;;;5075067;28;20274;-78
2023/01/23 09:17:23;;;;;;;23.50;14.83;;;0.60;99.90;;;;;;5074872;28;20254;-72
2023/01/23 09:19:50;;;;;;;23.07;14.87;;;0.70;99.90;;;;;;5074835;28;20231;-72
2023/01/23 09:22:17;;;;;;;21.93;13.70;;;0.80;99.90;;;;;;5074999;28;20707;-83
2023/01/23 09:24:44;;;;;;;22.37;13.83;;;0.80;99.90;;;;;;5074625;28;20668;-72
2023/01/23 09:27:10;;;;;;;22.37;14.27;;;0.80;99.90;;;;;;5074746;28;20312;-72
2023/01/23 09:29:37;;;;;;;21.27;13.30;;;0.80;99.90;;;;;;5074624;28;20201;-72
2023/01/23 09:32:05;;;;;;;22.23;14.87;;;0.80;99.90;;;;;;5074497;28;20286;-73
2023/01/23 09:34:32;;;;;;;20.10;13.87;;;0.80;99.90;;;;;;5074495;28;20205;-71
2023/01/23 09:36:59;;;;;;;23.90;15.07;;;0.80;99.90;;;;;;5074307;28;20201;-72
2023/01/23 09:39:25;;;;;;;23.57;14.97;;;0.80;99.90;;;;;;5074248;28;20648;-72
2023/01/23 09:41:52;;;;;;;21.70;14.20;;;0.80;99.90;;;;;;5074546;28;20250;-71
2023/01/23 09:44:22;;;;;;;22.20;13.77;;;0.80;99.90;;;;;;5074394;28;20284;-73
2023/01/23 09:46:53;;;;;;;23.27;14.23;;;0.80;99.90;;;;;;5074298;28;20251;-72
2023/01/23 09:49:28;;;;;;;25.27;15.40;;;0.90;99.90;;;;;;5074125;28;20197;-72
2023/01/23 09:51:58;;;;;;;21.73;14.77;;;0.90;99.90;;;;;;5074047;28;20216;-71
2023/01/23 09:54:34;;;;;;;23.67;14.07;;;0.80;99.90;;;;;;5073558;28;20197;-72
2023/01/23 09:57:05;;;;;;;21.80;14.10;;;0.90;99.90;;;;;;5074037;28;20254;-71
2023/01/23 09:59:37;;;;;;;22.40;13.97;;;1.10;99.90;;;;;;5074012;28;20274;-71
2023/01/23 10:02:11;;;;;;;24.17;14.67;;;1.20;99.90;;;;;;5074128;28;20668;-71
2023/01/23 10:04:39;;;;;;;22.63;14.50;;;1.20;99.90;;;;;;5074197;28;20197;-72
2023/01/23 10:07:46;;;;;;;23.40;14.43;;;1.30;99.90;;;;;;5073867;28;20255;-71
2023/01/23 10:10:41;;;;;;;20.97;13.73;;;1.40;99.90;;;;;;5066915;28;20201;-72
2023/01/23 10:13:12;;;;;;;23.63;14.13;;;1.50;99.90;;;;;;5070349;28;20270;-72
2023/01/23 10:16:02;;;;;;;20.27;13.10;;;1.50;99.90;;;;;;5073568;28;20725;-71
2023/01/23 10:18:35;;;;;;;19.73;13.03;;;1.70;99.90;;;;;;5073483;28;20193;-72
2023/01/23 10:21:12;;;;;;;18.53;12.47;;;1.80;99.90;;;;;;5073712;28;20201;-73
2023/01/23 10:23:48;;;;;;;20.10;11.67;;;1.80;99.90;;;;;;5073644;28;20247;-72
2023/01/23 10:26:19;;;;;;;19.43;12.23;;;1.80;99.90;;;;;;5073397;28;20269;-72
2023/01/23 10:28:46;;;;;;;19.00;12.70;;;1.80;99.90;;;;;;5073375;28;20201;-72
2023/01/23 10:31:28;;;;;;;21.30;14.37;;;1.90;99.90;;;;;;5073146;28;20196;-72
2023/01/23 10:34:01;;;;;;;21.13;14.30;;;1.90;99.90;;;;;;5073273;28;20200;-72
2023/01/23 10:36:36;;;;;;;21.13;14.77;;;1.80;99.90;;;;;;5073331;28;20197;-72
2023/01/23 10:39:06;;;;;;;23.13;15.90;;;1.80;99.90;;;;;;5073141;28;20201;-72
2023/01/23 10:41:33;;;;;;;22.70;14.83;;;1.80;99.90;;;;;;5073177;28;20201;-72
2023/01/23 10:44:01;;;;;;;22.40;15.27;;;1.90;99.90;;;;;;5073327;28;20197;-72
2023/01/23 10:46:31;;;;;;;19.47;13.57;;;1.90;99.90;;;;;;5073218;28;20268;-73
2023/01/23 10:48:59;;;;;;;19.67;13.37;;;1.90;99.90;;;;;;5073359;28;20205;-72
2023/01/23 10:51:28;;;;;;;17.90;12.23;;;1.90;99.90;;;;;;5073288;28;20217;-72
2023/01/23 10:54:18;;;;;;;18.67;12.13;;;1.90;99.90;;;;;;5073052;28;20205;-72
2023/01/23 10:56:53;;;;;;;17.47;12.17;;;2.00;99.90;;;;;;5073256;28;20200;-72
2023/01/23 10:59:27;;;;;;;16.77;11.10;;;2.00;99.90;;;;;;5073177;28;20215;-72
2023/01/23 11:01:57;;;;;;;16.37;11.93;;;2.00;99.90;;;;;;5072911;28;20249;-71
2023/01/23 11:04:26;;;;;;;18.37;12.60;;;2.10;99.90;;;;;;5072736;28;20687;-72
2023/01/23 11:07:09;;;;;;;18.53;12.90;;;2.10;99.90;;;;;;5072823;28;20251;-72
2023/01/23 11:09:48;;;;;;;18.60;12.77;;;2.10;99.90;;;;;;5072845;28;20252;-72
2023/01/23 11:12:17;;;;;;;17.93;12.43;;;2.10;99.90;;;;;;5072761;28;20251;-73
2023/01/23 11:14:44;;;;;;;17.33;12.63;;;2.00;99.90;;;;;;5072572;28;20233;-73
2023/01/23 11:17:18;;;;;;;18.77;12.20;;;2.10;99.90;;;;;;5072906;28;20247;-72
2023/01/23 11:19:47;;;;;;;16.80;11.20;;;2.30;99.90;;;;;;5072694;28;20272;-72
2023/01/23 11:22:32;;;;;;;16.53;12.03;;;2.30;99.90;;;;;;5072588;28;20256;-72
2023/01/23 11:25:16;;;;;;;17.03;12.00;;;2.40;99.90;;;;;;5072649;28;20194;-73
2023/01/23 11:27:56;;;;;;;16.70;12.10;;;2.40;99.90;;;;;;5072853;28;20198;-71
2023/01/23 11:30:34;;;;;;;15.43;11.03;;;2.30;99.90;;;;;;5072680;28;20267;-72
2023/01/23 11:33:12;;;;;;;15.03;10.50;;;2.40;99.90;;;;;;5072447;28;20698;-72
2023/01/23 11:35:56;;;;;;;17.33;11.20;;;2.40;99.90;;;;;;5072355;28;20243;-73
2023/01/23 11:38:26;;;;;;;16.53;11.53;;;2.20;99.90;;;;;;5072395;28;20646;-72
2023/01/23 11:40:54;;;;;;;16.37;11.40;;;2.30;99.90;;;;;;5072596;28;20204;-74
2023/01/23 11:43:21;;;;;;;17.63;12.07;;;2.50;99.90;;;;;;5072407;28;20200;-74
2023/01/23 11:46:05;;;;;;;16.70;11.50;;;2.70;99.90;;;;;;5072252;28;20201;-73
2023/01/23 11:48:47;;;;;;;15.03;10.77;;;2.90;99.90;;;;;;5072535;28;20201;-73
2023/01/23 11:51:20;;;;;;;14.03;10.50;;;3.00;99.90;;;;;;5072568;28;20205;-73
2023/01/23 11:53:59;;;;;;;14.83;11.07;;;3.20;99.90;;;;;;5072483;28;20698;-73
2023/01/23 11:56:47;;;;;;;15.90;10.73;;;3.40;99.90;;;;;;5072300;28;20193;-73
2023/01/23 11:59:53;;;;;;;15.80;10.90;;;3.40;99.90;;;;;;5072468;28;20201;-72
2023/01/23 12:03:05;;;;;;;15.03;10.50;;;3.60;99.90;;;;;;5068761;28;20533;-73
2023/01/23 12:06:29;;;;;;;14.83;10.90;;;3.50;99.90;;;;;;5072591;28;20254;-73
2023/01/23 12:09:05;;;;;;;16.30;11.93;;;3.20;99.90;;;;;;4956823;28;20203;-73
2023/01/23 12:11:40;;;;;;;14.63;10.80;;;3.30;99.90;;;;;;5072421;28;20197;-73
2023/01/23 12:14:15;;;;;;;15.10;10.73;;;3.30;99.90;;;;;;5072146;28;20196;-73
2023/01/23 12:17:07;;;;;;;15.30;11.33;;;3.50;99.90;;;;;;5072325;28;20249;-73
2023/01/23 12:20:00;;;;;;;15.03;11.57;;;3.50;99.90;;;;;;5076148;28;20205;-73
2023/01/23 12:22:35;;;;;;;14.60;11.13;;;3.70;99.90;;;;;;5075937;28;20288;-72
2023/01/23 12:25:16;;;;;;;15.40;11.80;;;3.60;99.90;;;;;;5075852;28;20262;-73
2023/01/23 12:27:46;;;;;;;15.67;11.60;;;3.30;99.90;;;;;;5075740;28;20201;-73
2023/01/23 12:30:52;;;;;;;17.33;12.43;;;3.10;99.90;;;;;;5075840;28;20196;-71
2023/01/23 12:33:38;;;;;;;19.00;12.00;;;3.10;99.90;;;;;;5028253;28;20220;-72
2023/01/23 12:36:21;;;;;;;18.13;12.90;;;2.80;99.90;;;;;;5075553;28;20205;-71
2023/01/23 12:38:57;;;;;;;18.07;12.23;;;2.80;99.90;;;;;;5075827;28;20201;-71
2023/01/23 12:41:35;;;;;;;16.50;12.10;;;3.10;99.90;;;;;;5075588;28;20199;-71
2023/01/23 12:44:11;;;;;;;16.77;11.30;;;3.10;99.90;;;;;;5075479;28;20743;-71
2023/01/23 12:46:43;;;;;;;15.90;11.87;;;3.20;99.90;;;;;;5075797;28;20195;-72
2023/01/23 12:49:21;;;;;;;15.63;11.87;;;3.40;99.90;;;;;;5075494;28;20648;-72
2023/01/23 12:51:52;;;;;;;16.87;11.73;;;3.50;99.90;;;;;;5075219;28;20652;-72
2023/01/23 12:54:27;;;;;;;15.83;11.43;;;3.30;99.90;;;;;;5075349;28;20203;-72